sensor_id;sensor_type;location;lat;lon;timestamp;P1;durP1;ratioP1;P2;durP2;ratioP2
28836;SDS011;50669;50.982;11.022;2023-12-28T00:00:16;2.53;;;1.65;;
28836;SDS011;50669;50.982;11.022;2023-12-28T00:02:45;2.38;;;1.60;;
28836;SDS011;50669;50.982;11.022;2023-12-28T00:05:11;2.10;;;1.60;;
28836;SDS011;50669;50.982;11.022;2023-12-28T00:07:37;5.15;;;1.85;;
28836;SDS011;50669;50.982;11.022;2023-12-28T00:10:05;3.05;;;1.58;;
28836;SDS011;50669;50.982;11.022;2023-12-28T00:12:31;3.60;;;1.52;;
28836;SDS011;50669;50.982;11.022;2023-12-28T00:14:57;2.95;;;1.52;;
28836;SDS011;50669;50.982;11.022;2023-12-28T00:17:23;2.95;;;2.00;;
28836;SDS011;50669;50.982;11.022;2023-12-28T00:19:48;5.22;;;1.90;;
28836;SDS011;50669;50.982;11.022;2023-12-28T00:22:16;2.65;;;1.70;;
28836;SDS011;50669;50.982;11.022;2023-12-28T00:24:44;3.90;;;1.70;;
28836;SDS011;50669;50.982;11.022;2023-12-28T00:27:10;4.45;;;1.83;;
28836;SDS011;50669;50.982;11.022;2023-12-28T00:29:36;3.67;;;1.83;;
28836;SDS011;50669;50.982;11.022;2023-12-28T00:32:06;5.15;;;1.90;;
28836;SDS011;50669;50.982;11.022;2023-12-28T00:34:32;3.42;;;1.50;;
28836;SDS011;50669;50.982;11.022;2023-12-28T00:37:00;3.08;;;1.50;;
28836;SDS011;50669;50.982;11.022;2023-12-28T00:39:28;2.30;;;1.55;;
28836;SDS011;50669;50.982;11.022;2023-12-28T00:41:53;3.35;;;1.75;;
28836;SDS011;50669;50.982;11.022;2023-12-28T00:44:24;3.38;;;1.73;;
28836;SDS011;50669;50.982;11.022;2023-12-28T00:46:49;2.72;;;1.55;;
28836;SDS011;50669;50.982;11.022;2023-12-28T00:49:15;3.50;;;1.33;;
28836;SDS011;50669;50.982;11.022;2023-12-28T00:51:43;3.58;;;1.58;;
28836;SDS011;50669;50.982;11.022;2023-12-28T00:54:08;3.53;;;1.25;;
28836;SDS011;50669;50.982;11.022;2023-12-28T00:56:37;6.03;;;1.73;;
28836;SDS011;50669;50.982;11.022;2023-12-28T00:59:02;4.00;;;1.52;;
28836;SDS011;50669;50.982;11.022;2023-12-28T01:01:28;3.03;;;1.60;;
28836;SDS011;50669;50.982;11.022;2023-12-28T01:03:55;4.28;;;1.80;;
28836;SDS011;50669;50.982;11.022;2023-12-28T01:06:24;3.58;;;1.50;;
28836;SDS011;50669;50.982;11.022;2023-12-28T01:08:56;2.63;;;1.33;;
28836;SDS011;50669;50.982;11.022;2023-12-28T01:11:22;2.85;;;1.42;;
28836;SDS011;50669;50.982;11.022;2023-12-28T01:13:47;2.60;;;1.48;;
28836;SDS011;50669;50.982;11.022;2023-12-28T01:16:13;3.95;;;1.40;;
28836;SDS011;50669;50.982;11.022;2023-12-28T01:18:39;2.15;;;1.60;;
28836;SDS011;50669;50.982;11.022;2023-12-28T01:21:05;4.15;;;1.70;;
28836;SDS011;50669;50.982;11.022;2023-12-28T01:23:31;3.65;;;1.42;;
28836;SDS011;50669;50.982;11.022;2023-12-28T01:25:57;3.15;;;1.67;;
28836;SDS011;50669;50.982;11.022;2023-12-28T01:28:22;2.78;;;1.50;;
28836;SDS011;50669;50.982;11.022;2023-12-28T01:30:48;3.67;;;1.30;;
28836;SDS011;50669;50.982;11.022;2023-12-28T01:33:14;3.55;;;1.67;;
28836;SDS011;50669;50.982;11.022;2023-12-28T01:35:40;2.35;;;1.58;;
28836;SDS011;50669;50.982;11.022;2023-12-28T01:38:08;4.88;;;1.52;;
28836;SDS011;50669;50.982;11.022;2023-12-28T01:40:43;3.53;;;1.45;;
28836;SDS011;50669;50.982;11.022;2023-12-28T01:43:10;3.22;;;1.58;;
28836;SDS011;50669;50.982;11.022;2023-12-28T01:45:38;1.95;;;1.40;;
28836;SDS011;50669;50.982;11.022;2023-12-28T01:48:03;3.60;;;1.35;;
28836;SDS011;50669;50.982;11.022;2023-12-28T01:50:30;4.22;;;1.50;;
28836;SDS011;50669;50.982;11.022;2023-12-28T01:52:56;3.85;;;1.27;;
28836;SDS011;50669;50.982;11.022;2023-12-28T01:55:25;3.53;;;1.65;;
28836;SDS011;50669;50.982;11.022;2023-12-28T01:57:51;1.60;;;1.20;;
28836;SDS011;50669;50.982;11.022;2023-12-28T02:00:18;2.47;;;1.45;;
28836;SDS011;50669;50.982;11.022;2023-12-28T02:02:44;2.78;;;1.20;;
28836;SDS011;50669;50.982;11.022;2023-12-28T02:05:10;4.07;;;1.40;;
28836;SDS011;50669;50.982;11.022;2023-12-28T02:07:45;3.00;;;1.20;;
28836;SDS011;50669;50.982;11.022;2023-12-28T02:10:11;2.53;;;1.53;;
28836;SDS011;50669;50.982;11.022;2023-12-28T02:12:36;1.90;;;1.00;;
28836;SDS011;50669;50.982;11.022;2023-12-28T02:15:03;2.38;;;1.38;;
28836;SDS011;50669;50.982;11.022;2023-12-28T02:20:31;2.95;;;1.20;;
28836;SDS011;50669;50.982;11.022;2023-12-28T02:23:01;3.03;;;1.58;;
28836;SDS011;50669;50.982;11.022;2023-12-28T02:25:28;3.63;;;1.40;;
28836;SDS011;50669;50.982;11.022;2023-12-28T02:27:53;3.40;;;1.50;;
28836;SDS011;50669;50.982;11.022;2023-12-28T02:30:20;1.85;;;1.23;;
28836;SDS011;50669;50.982;11.022;2023-12-28T02:35:29;3.78;;;1.50;;
28836;SDS011;50669;50.982;11.022;2023-12-28T02:38:05;1.80;;;1.00;;
28836;SDS011;50669;50.982;11.022;2023-12-28T02:40:35;1.73;;;1.30;;
28836;SDS011;50669;50.982;11.022;2023-12-28T02:43:04;2.10;;;1.30;;
28836;SDS011;50669;50.982;11.022;2023-12-28T02:45:36;4.38;;;1.80;;
28836;SDS011;50669;50.982;11.022;2023-12-28T02:48:04;3.20;;;1.30;;
28836;SDS011;50669;50.982;11.022;2023-12-28T02:50:36;2.15;;;1.25;;
28836;SDS011;50669;50.982;11.022;2023-12-28T02:53:01;1.52;;;0.95;;
28836;SDS011;50669;50.982;11.022;2023-12-28T02:55:27;3.30;;;1.02;;
28836;SDS011;50669;50.982;11.022;2023-12-28T02:57:56;2.67;;;1.13;;
28836;SDS011;50669;50.982;11.022;2023-12-28T03:00:25;2.83;;;1.27;;
28836;SDS011;50669;50.982;11.022;2023-12-28T03:02:50;1.83;;;1.33;;
28836;SDS011;50669;50.982;11.022;2023-12-28T03:05:16;3.05;;;1.40;;
28836;SDS011;50669;50.982;11.022;2023-12-28T03:07:45;1.63;;;1.10;;
28836;SDS011;50669;50.982;11.022;2023-12-28T03:10:13;2.28;;;1.38;;
28836;SDS011;50669;50.982;11.022;2023-12-28T03:12:38;2.25;;;1.48;;
28836;SDS011;50669;50.982;11.022;2023-12-28T03:15:04;1.88;;;1.17;;
28836;SDS011;50669;50.982;11.022;2023-12-28T03:17:33;2.30;;;1.20;;
28836;SDS011;50669;50.982;11.022;2023-12-28T03:20:02;2.58;;;1.23;;
28836;SDS011;50669;50.982;11.022;2023-12-28T03:22:30;1.85;;;1.33;;
28836;SDS011;50669;50.982;11.022;2023-12-28T03:24:58;1.98;;;1.10;;
28836;SDS011;50669;50.982;11.022;2023-12-28T03:27:24;2.45;;;1.35;;
28836;SDS011;50669;50.982;11.022;2023-12-28T03:29:52;2.03;;;1.33;;
28836;SDS011;50669;50.982;11.022;2023-12-28T03:32:17;3.70;;;1.63;;
28836;SDS011;50669;50.982;11.022;2023-12-28T03:34:43;2.88;;;1.40;;
28836;SDS011;50669;50.982;11.022;2023-12-28T03:37:11;2.80;;;1.58;;
28836;SDS011;50669;50.982;11.022;2023-12-28T03:39:37;2.13;;;1.20;;
28836;SDS011;50669;50.982;11.022;2023-12-28T03:42:02;2.58;;;1.15;;
28836;SDS011;50669;50.982;11.022;2023-12-28T03:44:28;2.20;;;1.27;;
28836;SDS011;50669;50.982;11.022;2023-12-28T03:46:54;2.20;;;1.30;;
28836;SDS011;50669;50.982;11.022;2023-12-28T03:49:21;2.88;;;1.45;;
28836;SDS011;50669;50.982;11.022;2023-12-28T03:51:47;2.78;;;1.33;;
28836;SDS011;50669;50.982;11.022;2023-12-28T03:54:16;2.50;;;1.20;;
28836;SDS011;50669;50.982;11.022;2023-12-28T03:56:45;3.13;;;1.33;;
28836;SDS011;50669;50.982;11.022;2023-12-28T03:59:11;2.60;;;1.50;;
28836;SDS011;50669;50.982;11.022;2023-12-28T04:01:37;1.92;;;1.15;;
28836;SDS011;50669;50.982;11.022;2023-12-28T04:04:03;2.20;;;1.45;;
28836;SDS011;50669;50.982;11.022;2023-12-28T04:06:28;2.40;;;1.13;;
28836;SDS011;50669;50.982;11.022;2023-12-28T04:08:56;2.63;;;1.20;;
28836;SDS011;50669;50.982;11.022;2023-12-28T04:11:22;1.13;;;0.93;;
28836;SDS011;50669;50.982;11.022;2023-12-28T04:13:50;1.95;;;1.17;;
28836;SDS011;50669;50.982;11.022;2023-12-28T04:16:16;2.40;;;1.13;;
28836;SDS011;50669;50.982;11.022;2023-12-28T04:18:42;1.15;;;0.80;;
28836;SDS011;50669;50.982;11.022;2023-12-28T04:21:09;3.05;;;1.45;;
28836;SDS011;50669;50.982;11.022;2023-12-28T04:23:39;3.58;;;1.10;;
28836;SDS011;50669;50.982;11.022;2023-12-28T04:26:06;3.15;;;0.93;;
28836;SDS011;50669;50.982;11.022;2023-12-28T04:28:32;2.15;;;1.25;;
28836;SDS011;50669;50.982;11.022;2023-12-28T04:31:01;3.47;;;1.00;;
28836;SDS011;50669;50.982;11.022;2023-12-28T04:33:28;1.38;;;0.95;;
28836;SDS011;50669;50.982;11.022;2023-12-28T04:35:56;1.67;;;1.00;;
28836;SDS011;50669;50.982;11.022;2023-12-28T04:38:22;4.03;;;1.52;;
28836;SDS011;50669;50.982;11.022;2023-12-28T04:40:50;2.22;;;1.15;;
28836;SDS011;50669;50.982;11.022;2023-12-28T04:43:16;3.45;;;1.45;;
28836;SDS011;50669;50.982;11.022;2023-12-28T04:45:42;2.30;;;1.00;;
28836;SDS011;50669;50.982;11.022;2023-12-28T04:48:07;2.80;;;1.23;;
28836;SDS011;50669;50.982;11.022;2023-12-28T04:50:35;2.45;;;1.20;;
28836;SDS011;50669;50.982;11.022;2023-12-28T04:53:03;1.90;;;1.00;;
28836;SDS011;50669;50.982;11.022;2023-12-28T04:55:29;4.05;;;1.27;;
28836;SDS011;50669;50.982;11.022;2023-12-28T04:57:54;1.77;;;1.15;;
28836;SDS011;50669;50.982;11.022;2023-12-28T05:00:20;1.92;;;1.27;;
28836;SDS011;50669;50.982;11.022;2023-12-28T05:02:45;2.35;;;1.30;;
28836;SDS011;50669;50.982;11.022;2023-12-28T05:05:13;2.42;;;1.13;;
28836;SDS011;50669;50.982;11.022;2023-12-28T05:07:39;1.80;;;1.00;;
28836;SDS011;50669;50.982;11.022;2023-12-28T05:10:05;1.42;;;1.00;;
28836;SDS011;50669;50.982;11.022;2023-12-28T05:12:31;1.50;;;1.00;;
28836;SDS011;50669;50.982;11.022;2023-12-28T05:14:57;4.55;;;1.35;;
28836;SDS011;50669;50.982;11.022;2023-12-28T05:17:22;3.85;;;1.35;;
28836;SDS011;50669;50.982;11.022;2023-12-28T05:19:50;2.00;;;1.25;;
28836;SDS011;50669;50.982;11.022;2023-12-28T05:22:18;1.67;;;1.20;;
28836;SDS011;50669;50.982;11.022;2023-12-28T05:24:44;4.25;;;1.10;;
28836;SDS011;50669;50.982;11.022;2023-12-28T05:27:12;2.92;;;1.00;;
28836;SDS011;50669;50.982;11.022;2023-12-28T05:29:37;3.17;;;1.40;;
28836;SDS011;50669;50.982;11.022;2023-12-28T05:32:03;4.68;;;1.30;;
28836;SDS011;50669;50.982;11.022;2023-12-28T05:34:30;2.67;;;1.15;;
28836;SDS011;50669;50.982;11.022;2023-12-28T05:36:55;2.95;;;1.50;;
28836;SDS011;50669;50.982;11.022;2023-12-28T05:39:25;2.47;;;0.90;;
28836;SDS011;50669;50.982;11.022;2023-12-28T05:41:51;3.08;;;1.20;;
28836;SDS011;50669;50.982;11.022;2023-12-28T05:44:17;1.98;;;1.00;;
28836;SDS011;50669;50.982;11.022;2023-12-28T05:46:43;1.90;;;1.10;;
28836;SDS011;50669;50.982;11.022;2023-12-28T05:49:08;4.57;;;1.33;;
28836;SDS011;50669;50.982;11.022;2023-12-28T05:51:40;1.08;;;0.98;;
28836;SDS011;50669;50.982;11.022;2023-12-28T05:54:06;1.83;;;1.10;;
28836;SDS011;50669;50.982;11.022;2023-12-28T05:56:33;1.88;;;1.08;;
28836;SDS011;50669;50.982;11.022;2023-12-28T05:59:01;2.35;;;1.33;;
28836;SDS011;50669;50.982;11.022;2023-12-28T06:01:26;1.92;;;1.23;;
28836;SDS011;50669;50.982;11.022;2023-12-28T06:03:54;1.73;;;1.10;;
28836;SDS011;50669;50.982;11.022;2023-12-28T06:06:22;8.48;;;1.75;;
28836;SDS011;50669;50.982;11.022;2023-12-28T06:08:48;4.50;;;1.50;;
28836;SDS011;50669;50.982;11.022;2023-12-28T06:11:13;5.05;;;1.52;;
28836;SDS011;50669;50.982;11.022;2023-12-28T06:13:39;4.30;;;1.90;;
28836;SDS011;50669;50.982;11.022;2023-12-28T06:16:05;6.35;;;2.65;;
28836;SDS011;50669;50.982;11.022;2023-12-28T06:18:31;5.20;;;2.80;;
28836;SDS011;50669;50.982;11.022;2023-12-28T06:20:56;4.53;;;2.60;;
28836;SDS011;50669;50.982;11.022;2023-12-28T06:23:22;7.10;;;3.10;;
28836;SDS011;50669;50.982;11.022;2023-12-28T06:25:47;5.30;;;3.20;;
28836;SDS011;50669;50.982;11.022;2023-12-28T06:28:13;4.80;;;2.97;;
28836;SDS011;50669;50.982;11.022;2023-12-28T06:30:41;4.60;;;2.50;;
28836;SDS011;50669;50.982;11.022;2023-12-28T06:33:07;5.07;;;2.13;;
28836;SDS011;50669;50.982;11.022;2023-12-28T06:35:32;6.25;;;2.78;;
28836;SDS011;50669;50.982;11.022;2023-12-28T06:38:00;8.60;;;2.67;;
28836;SDS011;50669;50.982;11.022;2023-12-28T06:40:27;5.22;;;2.55;;
28836;SDS011;50669;50.982;11.022;2023-12-28T06:42:52;5.20;;;2.35;;
28836;SDS011;50669;50.982;11.022;2023-12-28T06:45:21;5.57;;;2.25;;
28836;SDS011;50669;50.982;11.022;2023-12-28T06:47:55;3.47;;;2.08;;
28836;SDS011;50669;50.982;11.022;2023-12-28T06:50:20;9.32;;;2.20;;
28836;SDS011;50669;50.982;11.022;2023-12-28T06:52:46;3.28;;;2.35;;
28836;SDS011;50669;50.982;11.022;2023-12-28T06:55:12;6.85;;;2.10;;
28836;SDS011;50669;50.982;11.022;2023-12-28T06:57:37;5.70;;;2.50;;
28836;SDS011;50669;50.982;11.022;2023-12-28T07:00:03;5.35;;;2.50;;
28836;SDS011;50669;50.982;11.022;2023-12-28T07:02:31;5.10;;;2.38;;
28836;SDS011;50669;50.982;11.022;2023-12-28T07:04:57;3.75;;;2.35;;
28836;SDS011;50669;50.982;11.022;2023-12-28T07:07:23;3.45;;;2.00;;
28836;SDS011;50669;50.982;11.022;2023-12-28T07:09:48;9.32;;;2.55;;
28836;SDS011;50669;50.982;11.022;2023-12-28T07:12:16;3.20;;;1.90;;
28836;SDS011;50669;50.982;11.022;2023-12-28T07:14:45;3.17;;;1.95;;
28836;SDS011;50669;50.982;11.022;2023-12-28T07:17:13;3.17;;;2.28;;
28836;SDS011;50669;50.982;11.022;2023-12-28T07:19:42;3.95;;;1.80;;
28836;SDS011;50669;50.982;11.022;2023-12-28T07:22:08;3.05;;;2.10;;
28836;SDS011;50669;50.982;11.022;2023-12-28T07:24:33;4.53;;;2.40;;
28836;SDS011;50669;50.982;11.022;2023-12-28T07:26:59;3.30;;;1.95;;
28836;SDS011;50669;50.982;11.022;2023-12-28T07:29:25;5.35;;;2.03;;
28836;SDS011;50669;50.982;11.022;2023-12-28T07:31:50;2.83;;;1.98;;
28836;SDS011;50669;50.982;11.022;2023-12-28T07:34:16;6.43;;;2.67;;
28836;SDS011;50669;50.982;11.022;2023-12-28T07:36:42;4.10;;;1.88;;
28836;SDS011;50669;50.982;11.022;2023-12-28T07:39:08;4.18;;;1.88;;
28836;SDS011;50669;50.982;11.022;2023-12-28T07:41:34;3.45;;;2.00;;
28836;SDS011;50669;50.982;11.022;2023-12-28T07:44:00;2.25;;;1.73;;
28836;SDS011;50669;50.982;11.022;2023-12-28T07:46:25;3.33;;;1.88;;
28836;SDS011;50669;50.982;11.022;2023-12-28T07:48:53;3.33;;;2.17;;
28836;SDS011;50669;50.982;11.022;2023-12-28T07:51:19;3.40;;;2.28;;
28836;SDS011;50669;50.982;11.022;2023-12-28T07:53:45;3.70;;;2.08;;
28836;SDS011;50669;50.982;11.022;2023-12-28T07:56:13;3.33;;;2.10;;
28836;SDS011;50669;50.982;11.022;2023-12-28T07:58:40;2.97;;;2.17;;
28836;SDS011;50669;50.982;11.022;2023-12-28T08:01:09;3.67;;;1.83;;
28836;SDS011;50669;50.982;11.022;2023-12-28T08:03:36;2.67;;;1.90;;
28836;SDS011;50669;50.982;11.022;2023-12-28T08:06:01;4.18;;;1.95;;
28836;SDS011;50669;50.982;11.022;2023-12-28T08:08:30;3.08;;;1.55;;
28836;SDS011;50669;50.982;11.022;2023-12-28T08:10:59;3.78;;;1.70;;
28836;SDS011;50669;50.982;11.022;2023-12-28T08:13:25;3.50;;;1.80;;
28836;SDS011;50669;50.982;11.022;2023-12-28T08:15:51;2.50;;;1.63;;
28836;SDS011;50669;50.982;11.022;2023-12-28T08:18:18;2.05;;;1.80;;
28836;SDS011;50669;50.982;11.022;2023-12-28T08:20:44;2.22;;;1.70;;
28836;SDS011;50669;50.982;11.022;2023-12-28T08:23:10;3.50;;;2.00;;
28836;SDS011;50669;50.982;11.022;2023-12-28T08:25:35;2.65;;;1.80;;
28836;SDS011;50669;50.982;11.022;2023-12-28T08:28:01;2.83;;;1.60;;
28836;SDS011;50669;50.982;11.022;2023-12-28T08:30:26;3.22;;;1.73;;
28836;SDS011;50669;50.982;11.022;2023-12-28T08:32:55;3.10;;;1.63;;
28836;SDS011;50669;50.982;11.022;2023-12-28T08:35:20;2.78;;;2.03;;
28836;SDS011;50669;50.982;11.022;2023-12-28T08:37:46;2.40;;;1.60;;
28836;SDS011;50669;50.982;11.022;2023-12-28T08:40:15;2.85;;;1.60;;
28836;SDS011;50669;50.982;11.022;2023-12-28T08:42:40;2.90;;;1.70;;
28836;SDS011;50669;50.982;11.022;2023-12-28T08:45:06;3.83;;;1.90;;
28836;SDS011;50669;50.982;11.022;2023-12-28T08:47:32;2.47;;;1.95;;
28836;SDS011;50669;50.982;11.022;2023-12-28T08:49:58;2.45;;;1.40;;
28836;SDS011;50669;50.982;11.022;2023-12-28T08:52:23;2.63;;;1.60;;
28836;SDS011;50669;50.982;11.022;2023-12-28T08:54:49;1.98;;;1.40;;
28836;SDS011;50669;50.982;11.022;2023-12-28T08:57:16;3.08;;;1.73;;
28836;SDS011;50669;50.982;11.022;2023-12-28T08:59:45;2.53;;;1.88;;
28836;SDS011;50669;50.982;11.022;2023-12-28T09:02:10;2.92;;;1.63;;
28836;SDS011;50669;50.982;11.022;2023-12-28T09:04:36;2.75;;;1.55;;
28836;SDS011;50669;50.982;11.022;2023-12-28T09:07:03;3.40;;;1.90;;
28836;SDS011;50669;50.982;11.022;2023-12-28T09:09:29;3.70;;;1.80;;
28836;SDS011;50669;50.982;11.022;2023-12-28T09:11:57;4.53;;;1.60;;
28836;SDS011;50669;50.982;11.022;2023-12-28T09:14:25;2.58;;;1.63;;
28836;SDS011;50669;50.982;11.022;2023-12-28T09:16:51;2.00;;;1.60;;
28836;SDS011;50669;50.982;11.022;2023-12-28T09:19:16;2.65;;;1.70;;
28836;SDS011;50669;50.982;11.022;2023-12-28T09:21:42;1.52;;;1.30;;
28836;SDS011;50669;50.982;11.022;2023-12-28T09:24:08;2.90;;;1.70;;
28836;SDS011;50669;50.982;11.022;2023-12-28T09:26:33;1.65;;;1.48;;
28836;SDS011;50669;50.982;11.022;2023-12-28T09:28:59;1.77;;;1.50;;
28836;SDS011;50669;50.982;11.022;2023-12-28T09:31:27;2.08;;;1.45;;
28836;SDS011;50669;50.982;11.022;2023-12-28T09:33:53;1.73;;;1.58;;
28836;SDS011;50669;50.982;11.022;2023-12-28T09:36:18;2.33;;;1.40;;
28836;SDS011;50669;50.982;11.022;2023-12-28T09:38:44;2.67;;;1.80;;
28836;SDS011;50669;50.982;11.022;2023-12-28T09:41:14;1.80;;;1.42;;
28836;SDS011;50669;50.982;11.022;2023-12-28T09:46:18;1.85;;;1.50;;
28836;SDS011;50669;50.982;11.022;2023-12-28T09:48:43;2.28;;;1.38;;
28836;SDS011;50669;50.982;11.022;2023-12-28T09:51:12;2.28;;;1.77;;
28836;SDS011;50669;50.982;11.022;2023-12-28T09:53:44;3.72;;;1.73;;
28836;SDS011;50669;50.982;11.022;2023-12-28T09:56:11;3.88;;;1.58;;
28836;SDS011;50669;50.982;11.022;2023-12-28T09:58:41;1.75;;;1.40;;
28836;SDS011;50669;50.982;11.022;2023-12-28T10:01:09;1.88;;;1.10;;
28836;SDS011;50669;50.982;11.022;2023-12-28T10:03:35;1.85;;;1.38;;
28836;SDS011;50669;50.982;11.022;2023-12-28T10:06:03;3.53;;;1.65;;
28836;SDS011;50669;50.982;11.022;2023-12-28T10:08:29;2.40;;;1.60;;
28836;SDS011;50669;50.982;11.022;2023-12-28T10:10:55;2.83;;;1.50;;
28836;SDS011;50669;50.982;11.022;2023-12-28T10:13:24;1.85;;;1.40;;
28836;SDS011;50669;50.982;11.022;2023-12-28T10:15:50;2.53;;;1.70;;
28836;SDS011;50669;50.982;11.022;2023-12-28T10:18:18;2.17;;;1.30;;
28836;SDS011;50669;50.982;11.022;2023-12-28T10:20:54;2.25;;;1.52;;
28836;SDS011;50669;50.982;11.022;2023-12-28T10:23:19;1.80;;;1.40;;
28836;SDS011;50669;50.982;11.022;2023-12-28T10:25:48;2.55;;;1.40;;
28836;SDS011;50669;50.982;11.022;2023-12-28T10:28:20;1.95;;;1.35;;
28836;SDS011;50669;50.982;11.022;2023-12-28T10:30:46;3.30;;;1.60;;
28836;SDS011;50669;50.982;11.022;2023-12-28T10:33:13;2.10;;;1.33;;
28836;SDS011;50669;50.982;11.022;2023-12-28T10:35:44;2.35;;;1.48;;
28836;SDS011;50669;50.982;11.022;2023-12-28T10:38:10;1.80;;;1.45;;
28836;SDS011;50669;50.982;11.022;2023-12-28T10:40:41;1.65;;;1.35;;
28836;SDS011;50669;50.982;11.022;2023-12-28T10:43:08;2.53;;;1.45;;
28836;SDS011;50669;50.982;11.022;2023-12-28T10:45:37;1.65;;;1.40;;
28836;SDS011;50669;50.982;11.022;2023-12-28T10:48:10;1.45;;;1.13;;
28836;SDS011;50669;50.982;11.022;2023-12-28T10:50:40;2.05;;;1.50;;
28836;SDS011;50669;50.982;11.022;2023-12-28T11:01:21;2.42;;;1.20;;
28836;SDS011;50669;50.982;11.022;2023-12-28T11:03:55;2.28;;;1.30;;
28836;SDS011;50669;50.982;11.022;2023-12-28T11:06:33;1.73;;;1.25;;
28836;SDS011;50669;50.982;11.022;2023-12-28T11:09:01;2.15;;;1.50;;
28836;SDS011;50669;50.982;11.022;2023-12-28T11:11:28;2.28;;;1.15;;
28836;SDS011;50669;50.982;11.022;2023-12-28T11:13:58;2.05;;;1.30;;
28836;SDS011;50669;50.982;11.022;2023-12-28T11:16:27;1.85;;;1.30;;
28836;SDS011;50669;50.982;11.022;2023-12-28T11:18:55;2.65;;;1.52;;
28836;SDS011;50669;50.982;11.022;2023-12-28T11:21:24;2.13;;;1.30;;
28836;SDS011;50669;50.982;11.022;2023-12-28T11:23:51;1.75;;;1.10;;
28836;SDS011;50669;50.982;11.022;2023-12-28T11:26:17;1.63;;;1.20;;
28836;SDS011;50669;50.982;11.022;2023-12-28T11:28:46;2.08;;;1.40;;
28836;SDS011;50669;50.982;11.022;2023-12-28T11:31:15;1.73;;;1.23;;
28836;SDS011;50669;50.982;11.022;2023-12-28T11:36:10;1.33;;;1.20;;
28836;SDS011;50669;50.982;11.022;2023-12-28T11:38:37;3.13;;;1.20;;
28836;SDS011;50669;50.982;11.022;2023-12-28T11:41:05;1.42;;;1.00;;
28836;SDS011;50669;50.982;11.022;2023-12-28T11:43:34;1.55;;;1.13;;
28836;SDS011;50669;50.982;11.022;2023-12-28T11:46:00;2.30;;;1.27;;
28836;SDS011;50669;50.982;11.022;2023-12-28T11:48:30;2.90;;;1.20;;
28836;SDS011;50669;50.982;11.022;2023-12-28T11:50:59;1.55;;;1.25;;
28836;SDS011;50669;50.982;11.022;2023-12-28T11:53:28;2.42;;;1.30;;
28836;SDS011;50669;50.982;11.022;2023-12-28T11:55:59;2.17;;;1.30;;
28836;SDS011;50669;50.982;11.022;2023-12-28T11:58:28;1.20;;;1.08;;
28836;SDS011;50669;50.982;11.022;2023-12-28T12:00:54;1.50;;;1.10;;
28836;SDS011;50669;50.982;11.022;2023-12-28T12:03:19;1.23;;;1.08;;
28836;SDS011;50669;50.982;11.022;2023-12-28T12:05:45;1.80;;;1.20;;
28836;SDS011;50669;50.982;11.022;2023-12-28T12:08:11;1.35;;;1.00;;
28836;SDS011;50669;50.982;11.022;2023-12-28T12:10:39;1.65;;;1.10;;
28836;SDS011;50669;50.982;11.022;2023-12-28T12:13:06;1.85;;;1.10;;
28836;SDS011;50669;50.982;11.022;2023-12-28T12:15:32;2.55;;;1.10;;
28836;SDS011;50669;50.982;11.022;2023-12-28T12:17:58;1.45;;;1.00;;
28836;SDS011;50669;50.982;11.022;2023-12-28T12:20:25;1.30;;;0.95;;
28836;SDS011;50669;50.982;11.022;2023-12-28T12:22:56;1.40;;;1.10;;
28836;SDS011;50669;50.982;11.022;2023-12-28T12:25:28;1.20;;;1.10;;
28836;SDS011;50669;50.982;11.022;2023-12-28T12:27:54;1.63;;;1.00;;
28836;SDS011;50669;50.982;11.022;2023-12-28T12:30:19;1.63;;;1.13;;
28836;SDS011;50669;50.982;11.022;2023-12-28T12:32:45;2.38;;;1.10;;
28836;SDS011;50669;50.982;11.022;2023-12-28T12:35:11;1.65;;;1.25;;
28836;SDS011;50669;50.982;11.022;2023-12-28T12:37:39;1.17;;;0.93;;
28836;SDS011;50669;50.982;11.022;2023-12-28T12:40:05;1.83;;;0.98;;
28836;SDS011;50669;50.982;11.022;2023-12-28T12:42:32;1.92;;;1.13;;
28836;SDS011;50669;50.982;11.022;2023-12-28T12:45:03;2.13;;;1.30;;
28836;SDS011;50669;50.982;11.022;2023-12-28T12:47:32;1.33;;;1.23;;
28836;SDS011;50669;50.982;11.022;2023-12-28T12:50:01;1.48;;;1.02;;
28836;SDS011;50669;50.982;11.022;2023-12-28T12:52:27;2.38;;;0.95;;
28836;SDS011;50669;50.982;11.022;2023-12-28T12:54:55;2.17;;;1.30;;
28836;SDS011;50669;50.982;11.022;2023-12-28T12:57:22;1.30;;;1.00;;
28836;SDS011;50669;50.982;11.022;2023-12-28T12:59:49;1.30;;;0.88;;
28836;SDS011;50669;50.982;11.022;2023-12-28T13:02:15;1.50;;;1.10;;
28836;SDS011;50669;50.982;11.022;2023-12-28T13:04:43;1.15;;;0.95;;
28836;SDS011;50669;50.982;11.022;2023-12-28T13:07:09;1.10;;;0.90;;
28836;SDS011;50669;50.982;11.022;2023-12-28T13:09:35;1.42;;;1.15;;
28836;SDS011;50669;50.982;11.022;2023-12-28T13:12:01;2.05;;;1.10;;
28836;SDS011;50669;50.982;11.022;2023-12-28T13:14:28;1.40;;;0.90;;
28836;SDS011;50669;50.982;11.022;2023-12-28T13:16:56;1.48;;;1.17;;
28836;SDS011;50669;50.982;11.022;2023-12-28T13:19:21;1.48;;;1.13;;
28836;SDS011;50669;50.982;11.022;2023-12-28T13:21:49;1.77;;;1.00;;
28836;SDS011;50669;50.982;11.022;2023-12-28T13:24:17;2.97;;;1.15;;
28836;SDS011;50669;50.982;11.022;2023-12-28T13:26:43;1.85;;;1.15;;
28836;SDS011;50669;50.982;11.022;2023-12-28T13:29:09;1.15;;;1.00;;
28836;SDS011;50669;50.982;11.022;2023-12-28T13:31:34;1.30;;;1.10;;
28836;SDS011;50669;50.982;11.022;2023-12-28T13:34:00;2.00;;;1.15;;
28836;SDS011;50669;50.982;11.022;2023-12-28T13:36:28;0.98;;;0.88;;
28836;SDS011;50669;50.982;11.022;2023-12-28T13:38:54;3.08;;;1.10;;
28836;SDS011;50669;50.982;11.022;2023-12-28T13:41:22;1.55;;;1.08;;
28836;SDS011;50669;50.982;11.022;2023-12-28T13:43:52;1.33;;;1.10;;
28836;SDS011;50669;50.982;11.022;2023-12-28T13:46:25;1.02;;;0.93;;
28836;SDS011;50669;50.982;11.022;2023-12-28T13:48:50;1.60;;;1.20;;
28836;SDS011;50669;50.982;11.022;2023-12-28T13:51:16;1.13;;;0.93;;
28836;SDS011;50669;50.982;11.022;2023-12-28T13:53:42;1.60;;;0.98;;
28836;SDS011;50669;50.982;11.022;2023-12-28T13:56:08;1.20;;;0.90;;
28836;SDS011;50669;50.982;11.022;2023-12-28T13:58:36;1.48;;;1.10;;
28836;SDS011;50669;50.982;11.022;2023-12-28T14:01:07;0.98;;;0.80;;
28836;SDS011;50669;50.982;11.022;2023-12-28T14:03:32;1.27;;;1.00;;
28836;SDS011;50669;50.982;11.022;2023-12-28T14:05:58;0.93;;;0.85;;
28836;SDS011;50669;50.982;11.022;2023-12-28T14:08:24;1.85;;;0.95;;
28836;SDS011;50669;50.982;11.022;2023-12-28T14:10:50;1.00;;;0.88;;
28836;SDS011;50669;50.982;11.022;2023-12-28T14:13:20;1.10;;;0.93;;
28836;SDS011;50669;50.982;11.022;2023-12-28T14:15:49;2.17;;;0.90;;
28836;SDS011;50669;50.982;11.022;2023-12-28T14:18:14;1.60;;;0.95;;
28836;SDS011;50669;50.982;11.022;2023-12-28T14:20:42;1.00;;;0.70;;
28836;SDS011;50669;50.982;11.022;2023-12-28T14:23:10;1.27;;;0.95;;
28836;SDS011;50669;50.982;11.022;2023-12-28T14:25:37;1.13;;;0.95;;
28836;SDS011;50669;50.982;11.022;2023-12-28T14:28:05;1.15;;;0.70;;
28836;SDS011;50669;50.982;11.022;2023-12-28T14:30:37;1.65;;;1.20;;
28836;SDS011;50669;50.982;11.022;2023-12-28T14:33:06;1.33;;;1.08;;
28836;SDS011;50669;50.982;11.022;2023-12-28T14:35:32;1.55;;;1.10;;
28836;SDS011;50669;50.982;11.022;2023-12-28T14:37:58;0.80;;;0.70;;
28836;SDS011;50669;50.982;11.022;2023-12-28T14:40:23;1.42;;;1.05;;
28836;SDS011;50669;50.982;11.022;2023-12-28T14:42:51;1.15;;;1.05;;
28836;SDS011;50669;50.982;11.022;2023-12-28T14:45:16;1.30;;;0.90;;
28836;SDS011;50669;50.982;11.022;2023-12-28T14:47:45;1.00;;;0.90;;
28836;SDS011;50669;50.982;11.022;2023-12-28T14:50:10;1.38;;;0.93;;